createdAt,value
2023-01-23T00:01:37.012Z,103167.33
2023-01-23T00:04:04.800Z,103168.92
2023-01-23T00:06:32.127Z,103167.96
2023-01-23T00:08:59.161Z,103167.84
2023-01-23T00:11:27.889Z,103171.62
2023-01-23T00:13:58.440Z,103175.46
2023-01-23T00:16:26.889Z,103176.67
2023-01-23T00:18:54.650Z,103178.95
2023-01-23T00:21:24.025Z,103181.91
2023-01-23T00:23:52.408Z,103178.58
2023-01-23T00:26:21.609Z,103178.34
2023-01-23T00:28:50.202Z,103180.80
2023-01-23T00:31:27.341Z,103178.48
2023-01-23T00:33:56.081Z,103174.61
2023-01-23T00:36:23.580Z,103174.25
2023-01-23T00:38:50.454Z,103179.02
2023-01-23T00:41:17.576Z,103180.91
2023-01-23T00:43:46.405Z,103181.08
2023-01-23T00:46:13.903Z,103179.55
2023-01-23T00:48:41.000Z,103181.29
2023-01-23T00:51:08.634Z,103187.36
2023-01-23T00:53:35.878Z,103184.16
2023-01-23T00:56:03.263Z,103185.38
2023-01-23T00:58:30.823Z,103183.79
2023-01-23T01:00:58.076Z,103188.04
2023-01-23T01:03:25.131Z,103189.09
2023-01-23T07:23:21.509Z,103298.59
2023-01-23T07:25:48.564Z,103296.20
2023-01-23T07:28:15.811Z,103295.50
2023-01-23T07:30:42.876Z,103297.33
2023-01-23T07:33:12.581Z,103303.31
2023-01-23T07:35:40.952Z,103305.78
2023-01-23T07:38:08.194Z,103305.78
2023-01-23T07:40:38.334Z,103302.98
2023-01-23T07:43:05.257Z,103299.65
2023-01-23T07:45:32.407Z,103296.10
2023-01-23T07:47:59.862Z,103296.54
2023-01-23T07:50:27.029Z,103299.95
2023-01-23T07:52:56.101Z,103303.59
2023-01-23T07:55:23.874Z,103303.58
2023-01-23T07:57:50.814Z,103301.02
2023-01-23T08:00:19.640Z,103305.37
2023-01-23T08:02:46.864Z,103310.39
2023-01-23T08:05:13.855Z,103307.85
2023-01-23T08:07:41.003Z,103318.24
2023-01-23T08:13:38.119Z,103320.14
2023-01-23T08:16:06.322Z,103322.46
2023-01-23T08:18:33.852Z,103321.24
2023-01-23T08:21:02.034Z,103322.65
2023-01-23T08:23:31.040Z,103325.14
2023-01-23T08:26:00.131Z,103323.81
2023-01-23T08:28:27.268Z,103326.30
2023-01-23T08:30:54.314Z,103332.65
2023-01-23T08:33:21.458Z,103331.67
2023-01-23T16:19:25.699Z,103313.43
2023-01-23T16:22:03.435Z,103314.63
2023-01-23T16:24:34.822Z,103315.81
2023-01-23T16:27:02.312Z,103315.92
2023-01-23T16:29:31.245Z,103313.05
2023-01-23T16:32:01.170Z,103312.06
2023-01-23T16:34:28.433Z,103317.00
2023-01-23T16:36:56.750Z,103319.01
2023-01-23T16:39:26.337Z,103322.59
2023-01-23T16:41:56.120Z,103324.27
2023-01-23T16:44:23.605Z,103325.10
2023-01-23T16:46:51.632Z,103326.36
2023-01-23T16:49:18.901Z,103326.28
2023-01-23T16:51:48.434Z,103327.89
2023-01-23T16:54:18.770Z,103326.60
2023-01-23T16:56:47.550Z,103330.23
2023-01-23T16:59:20.224Z,103329.55
2023-01-23T17:01:48.787Z,103329.66
2023-01-23T17:04:17.491Z,103331.08
2023-01-23T17:06:44.539Z,103335.23
2023-01-23T17:09:12.511Z,103335.30
2023-01-23T17:11:41.911Z,103335.14
2023-01-23T17:14:29.850Z,103335.00
2023-01-23T17:17:00.989Z,103337.10
2023-01-23T17:19:33.020Z,103337.16
2023-01-23T17:22:00.021Z,103337.36
2023-01-23T17:24:27.358Z,103336.90
2023-01-23T17:26:54.398Z,103334.83
2023-01-23T17:29:22.571Z,103336.40
2023-01-23T17:31:49.874Z,103335.46
2023-01-23T17:34:21.891Z,103336.08
2023-01-23T17:36:49.349Z,103338.87
2023-01-23T17:39:16.289Z,103335.55
2023-01-23T17:41:43.345Z,103339.67
2023-01-23T17:44:10.812Z,103339.50
2023-01-23T17:46:39.068Z,103340.52
2023-01-23T17:49:27.531Z,103339.84
2023-01-23T17:51:55.484Z,103339.80
2023-01-23T17:54:22.322Z,103337.60
2023-01-23T17:56:49.372Z,103335.79
2023-01-23T17:59:16.419Z,103335.49
2023-01-23T18:01:43.465Z,103337.66
2023-01-23T18:04:18.509Z,103337.77
2023-01-23T18:06:46.161Z,103339.60
2023-01-23T18:09:13.721Z,103334.68
2023-01-23T18:11:43.326Z,103339.92
2023-01-23T18:14:22.676Z,103335.79
2023-01-23T18:16:50.714Z,103335.09
2023-01-23T18:19:18.914Z,103330.10
2023-01-23T18:21:48.064Z,103335.73
2023-01-23T18:24:29.718Z,103335.03
2023-01-23T18:27:15.681Z,103337.25
2023-01-23T18:29:49.702Z,103333.04
2023-01-23T18:32:41.628Z,103331.46
2023-01-23T18:35:36.930Z,103329.85
2023-01-23T18:41:26.846Z,103329.25
2023-01-23T18:44:16.786Z,103330.03
2023-01-23T18:46:45.509Z,103328.98
2023-01-23T18:49:27.784Z,103327.77
2023-01-23T18:52:11.999Z,103327.94
2023-01-23T18:54:42.586Z,103330.91
2023-01-23T18:57:32.695Z,103333.16
2023-01-23T19:00:29.660Z,103331.17
2023-01-23T19:03:01.887Z,103331.95
